Time;durP1;ratioP1;P1;durP2;ratioP2;P2;SDS_P1;SDS_P2;PMS_P1;PMS_P2;Temp;Humidity;BMP_temperature;BMP_pressure;BME280_temperature;BME280_humidity;BME280_pressure;Samples;Min_cycle;Max_cycle;Signal;HPM_P1;HPM_P2
2021/08/14 00:01:22;;;;;;;7.30;4.80;;;21.30;97.30;;;;;;5050802;28;20175;-78
2021/08/14 00:03:48;;;;;;;6.47;4.37;;;21.30;97.30;;;;;;5050825;28;20171;-77
2021/08/14 00:06:16;;;;;;;11.67;5.33;;;21.30;97.30;;;;;;5050952;28;20179;-78
2021/08/14 00:08:43;;;;;;;8.87;4.50;;;21.30;97.30;;;;;;5050778;28;20195;-77
2021/08/14 00:11:08;;;;;;;9.40;4.70;;;21.20;97.30;;;;;;5050751;28;20415;-77
2021/08/14 00:13:34;;;;;;;11.90;5.30;;;21.20;97.30;;;;;;5051903;28;20414;-77
2021/08/14 00:15:59;;;;;;;10.87;4.93;;;21.20;97.30;;;;;;5049782;28;20179;-77
2021/08/14 00:18:25;;;;;;;11.00;4.70;;;21.20;97.30;;;;;;5030609;28;20563;-77
2021/08/14 00:20:51;;;;;;;9.97;4.93;;;21.10;97.30;;;;;;5030700;28;20211;-77
2021/08/14 00:23:16;;;;;;;6.70;4.27;;;21.10;97.30;;;;;;5031665;28;20278;-77
2021/08/14 00:25:42;;;;;;;11.77;4.23;;;21.00;97.30;;;;;;5031802;28;20168;-77
2021/08/14 00:28:07;;;;;;;8.43;4.30;;;21.00;97.30;;;;;;5030455;28;20188;-77
2021/08/14 00:30:33;;;;;;;8.60;4.00;;;21.00;97.30;;;;;;5031650;28;20172;-77
2021/08/14 00:32:58;;;;;;;8.30;4.03;;;20.90;97.30;;;;;;5030480;28;20598;-77
2021/08/14 00:35:24;;;;;;;7.57;4.10;;;20.80;97.30;;;;;;5030547;28;20180;-77
2021/08/14 00:37:49;;;;;;;9.03;5.47;;;20.80;97.30;;;;;;5030292;28;20748;-76
2021/08/14 00:40:15;;;;;;;5.63;4.00;;;20.80;97.30;;;;;;5030503;28;20187;-77
2021/08/14 00:42:41;;;;;;;8.53;4.20;;;20.80;97.30;;;;;;5030213;28;20211;-77
2021/08/14 00:45:07;;;;;;;7.70;4.27;;;20.70;97.30;;;;;;5032967;28;20180;-79
2021/08/14 00:47:33;;;;;;;7.87;4.40;;;20.70;97.30;;;;;;5033625;28;20184;-79
2021/08/14 00:49:59;;;;;;;11.23;4.30;;;20.60;97.30;;;;;;5033860;28;20407;-79
2021/08/14 00:52:24;;;;;;;6.43;4.00;;;20.60;97.30;;;;;;5033438;28;20238;-79
2021/08/14 00:54:50;;;;;;;8.07;4.40;;;20.50;97.30;;;;;;5035014;28;20211;-78
2021/08/14 00:57:16;;;;;;;7.17;4.57;;;20.50;97.30;;;;;;5033629;28;20642;-79
2021/08/14 00:59:51;;;;;;;9.93;4.47;;;20.50;97.30;;;;;;5033143;28;20193;-79
2021/08/14 01:02:17;;;;;;;5.57;3.80;;;20.40;97.30;;;;;;5033058;28;20701;-79
2021/08/14 01:04:45;;;;;;;10.00;4.80;;;20.40;97.30;;;;;;5033066;28;20470;-79
2021/08/14 01:07:11;;;;;;;8.50;4.67;;;20.30;97.30;;;;;;5033357;28;20417;-79
2021/08/14 01:09:36;;;;;;;7.73;4.23;;;20.20;97.30;;;;;;5033122;28;20936;-79
2021/08/14 01:12:02;;;;;;;9.73;4.40;;;20.20;97.30;;;;;;5033790;28;20176;-79
2021/08/14 01:14:31;;;;;;;7.97;4.53;;;20.20;97.30;;;;;;5032810;28;20183;-79
2021/08/14 01:16:56;;;;;;;8.33;4.23;;;20.20;97.30;;;;;;5042752;28;20932;-79
2021/08/14 01:19:22;;;;;;;7.60;4.10;;;20.10;97.30;;;;;;5056275;28;20426;-79
2021/08/14 01:21:50;;;;;;;10.53;4.53;;;20.10;97.30;;;;;;5056590;28;20227;-79
2021/08/14 01:24:16;;;;;;;9.37;5.30;;;20.10;97.30;;;;;;5056729;28;21014;-79
2021/08/14 01:26:45;;;;;;;9.67;4.90;;;20.00;97.30;;;;;;5056970;28;20417;-79
2021/08/14 01:29:11;;;;;;;7.73;4.27;;;20.00;97.30;;;;;;5056530;28;20465;-79
2021/08/14 01:31:37;;;;;;;9.13;4.40;;;20.00;97.30;;;;;;5056950;28;20426;-79
2021/08/14 01:34:03;;;;;;;7.60;4.33;;;19.90;97.30;;;;;;5056774;28;20180;-79
2021/08/14 01:36:29;;;;;;;10.13;5.23;;;19.90;97.30;;;;;;5056247;28;20489;-79
2021/08/14 01:38:58;;;;;;;10.90;4.93;;;19.80;97.30;;;;;;5055956;28;20647;-79
2021/08/14 01:41:24;;;;;;;8.63;4.17;;;19.80;97.30;;;;;;5056270;28;20180;-79
2021/08/14 01:43:55;;;;;;;7.30;4.30;;;19.80;97.30;;;;;;5057833;28;20938;-79
2021/08/14 01:46:21;;;;;;;7.73;4.80;;;19.70;97.30;;;;;;5056221;28;20180;-78
2021/08/14 01:48:47;;;;;;;7.70;4.53;;;19.70;97.30;;;;;;5056405;28;20434;-79
2021/08/14 01:51:12;;;;;;;8.83;4.33;;;19.70;97.30;;;;;;5056546;28;20767;-78
2021/08/14 01:53:43;;;;;;;9.37;4.37;;;19.70;97.30;;;;;;5056283;28;20673;-79
2021/08/14 01:56:09;;;;;;;8.27;4.20;;;19.60;97.30;;;;;;5057218;28;20184;-78
2021/08/14 01:58:34;;;;;;;9.30;5.27;;;19.50;97.30;;;;;;5055853;28;20450;-79
2021/08/14 02:01:00;;;;;;;8.43;4.10;;;19.50;97.30;;;;;;5056178;28;20591;-79
2021/08/14 02:03:25;;;;;;;8.57;4.00;;;19.40;97.30;;;;;;5055944;28;20207;-78
2021/08/14 02:05:51;;;;;;;6.70;4.27;;;19.40;97.30;;;;;;5055383;28;20172;-79
2021/08/14 02:08:16;;;;;;;5.40;3.77;;;19.40;97.30;;;;;;5057211;28;20191;-79
2021/08/14 02:10:42;;;;;;;7.83;4.23;;;19.30;97.30;;;;;;5055482;28;20175;-78
2021/08/14 02:13:10;;;;;;;9.67;4.80;;;19.30;97.30;;;;;;5055808;28;20176;-79
2021/08/14 02:15:36;;;;;;;8.13;4.47;;;19.20;97.30;;;;;;5056971;28;20168;-79
2021/08/14 02:18:01;;;;;;;7.00;3.93;;;19.10;97.30;;;;;;5037899;28;20450;-79
2021/08/14 02:20:27;;;;;;;12.23;4.87;;;19.10;97.30;;;;;;5035419;28;20704;-79
2021/08/14 02:22:52;;;;;;;6.83;4.27;;;19.00;97.30;;;;;;5035314;28;20232;-78
2021/08/14 02:25:18;;;;;;;11.73;4.87;;;18.90;97.30;;;;;;5036731;28;20646;-79
2021/08/14 02:27:43;;;;;;;8.70;4.53;;;18.80;97.30;;;;;;5037208;28;20516;-79
2021/08/14 02:30:09;;;;;;;10.03;4.33;;;18.80;97.30;;;;;;5036020;28;20686;-79
2021/08/14 02:32:35;;;;;;;7.47;4.27;;;18.70;97.30;;;;;;5036147;28;20176;-79
2021/08/14 02:35:00;;;;;;;8.97;4.90;;;18.60;97.30;;;;;;5036023;28;20498;-79
2021/08/14 02:37:26;;;;;;;8.10;4.63;;;18.50;97.30;;;;;;5036249;28;20179;-79
2021/08/14 02:39:52;;;;;;;5.47;3.80;;;18.40;97.30;;;;;;5036316;28;20299;-79
2021/08/14 02:42:17;;;;;;;8.10;5.07;;;18.30;97.30;;;;;;5039539;28;20200;-85
2021/08/14 02:44:43;;;;;;;8.10;4.87;;;18.20;97.30;;;;;;5039069;28;20185;-84
2021/08/14 02:47:08;;;;;;;7.23;4.13;;;18.20;97.30;;;;;;5039572;28;20185;-84
2021/08/14 02:49:34;;;;;;;10.83;4.77;;;18.10;97.30;;;;;;5038844;28;20263;-84
2021/08/14 02:51:59;;;;;;;9.30;4.27;;;18.00;97.30;;;;;;5039804;28;20177;-84
2021/08/14 02:54:25;;;;;;;9.60;5.40;;;18.00;97.30;;;;;;5040847;28;20550;-84
2021/08/14 02:56:50;;;;;;;8.40;4.37;;;17.90;97.30;;;;;;5039394;28;20177;-84
2021/08/14 02:59:16;;;;;;;8.93;5.07;;;17.90;97.30;;;;;;5040190;28;20193;-84
2021/08/14 03:01:41;;;;;;;11.07;5.47;;;17.90;97.30;;;;;;5039631;28;20230;-84
2021/08/14 03:04:07;;;;;;;11.07;4.90;;;17.90;97.30;;;;;;5040540;28;20180;-84
2021/08/14 03:06:33;;;;;;;9.43;4.67;;;17.80;97.30;;;;;;5040087;28;20176;-84
2021/08/14 03:08:58;;;;;;;6.50;3.93;;;17.80;97.30;;;;;;5038720;28;20196;-84
2021/08/14 03:11:24;;;;;;;7.03;3.93;;;17.70;97.30;;;;;;5041266;28;20546;-84
2021/08/14 03:13:49;;;;;;;7.37;4.47;;;17.70;97.30;;;;;;5039135;28;20185;-84
2021/08/14 03:16:15;;;;;;;7.83;4.77;;;17.60;97.30;;;;;;5042292;28;20172;-84
2021/08/14 03:18:41;;;;;;;10.23;5.03;;;17.60;97.30;;;;;;5059650;28;20199;-84
2021/08/14 03:21:06;;;;;;;11.20;5.37;;;17.60;97.30;;;;;;5059074;28;20195;-85
2021/08/14 03:23:32;;;;;;;7.60;4.67;;;17.50;97.30;;;;;;5058134;28;20235;-84
2021/08/14 03:25:58;;;;;;;9.30;5.50;;;17.50;97.30;;;;;;5059454;28;20171;-84
2021/08/14 03:28:23;;;;;;;11.33;4.80;;;17.40;97.30;;;;;;5059232;28;20657;-84
2021/08/14 03:30:49;;;;;;;9.40;4.67;;;17.40;97.30;;;;;;5058352;28;20172;-84
2021/08/14 03:33:14;;;;;;;9.60;5.30;;;17.40;97.30;;;;;;5059117;28;20302;-84
2021/08/14 03:35:40;;;;;;;7.30;5.17;;;17.40;97.30;;;;;;5060777;28;20282;-85
2021/08/14 03:38:05;;;;;;;9.40;5.13;;;17.30;97.30;;;;;;5058544;28;20701;-84
2021/08/14 03:40:31;;;;;;;10.47;5.43;;;17.30;97.30;;;;;;5059834;28;20206;-84
2021/08/14 03:42:56;;;;;;;12.33;5.30;;;17.20;97.30;;;;;;5058870;28;20211;-84
2021/08/14 03:45:22;;;;;;;6.80;4.60;;;17.20;97.30;;;;;;5060177;28;20191;-84
2021/08/14 03:47:48;;;;;;;9.23;5.43;;;17.10;97.30;;;;;;5059706;28;20180;-84
2021/08/14 03:50:14;;;;;;;10.50;5.57;;;17.10;97.30;;;;;;5060019;28;20221;-84
2021/08/14 03:52:40;;;;;;;9.73;5.53;;;17.00;97.30;;;;;;5059799;28;20184;-84
2021/08/14 03:55:07;;;;;;;12.10;5.70;;;17.00;97.30;;;;;;5058799;28;20426;-84
2021/08/14 03:57:33;;;;;;;7.07;4.90;;;17.10;97.30;;;;;;5059346;28;20865;-84
2021/08/14 03:59:58;;;;;;;10.43;5.30;;;17.00;97.30;;;;;;5060407;28;20411;-84
2021/08/14 04:02:24;;;;;;;12.43;6.83;;;17.00;97.30;;;;;;5059476;28;20454;-84
2021/08/14 04:04:51;;;;;;;10.20;5.00;;;17.00;97.30;;;;;;5058404;28;20236;-84
2021/08/14 04:07:16;;;;;;;11.27;5.90;;;17.00;97.30;;;;;;5059817;28;20432;-84
2021/08/14 04:09:42;;;;;;;10.90;4.97;;;16.90;97.30;;;;;;5059020;28;20943;-84
2021/08/14 04:12:08;;;;;;;8.83;4.77;;;16.90;97.30;;;;;;5058533;28;20176;-84
2021/08/14 04:14:33;;;;;;;8.27;5.30;;;16.80;97.30;;;;;;5058518;28;20243;-84
2021/08/14 04:16:59;;;;;;;7.33;5.17;;;16.80;97.30;;;;;;5060318;28;20410;-84
2021/08/14 04:19:24;;;;;;;12.60;5.30;;;16.80;97.30;;;;;;5058000;28;20255;-84
2021/08/14 04:21:50;;;;;;;11.93;5.43;;;16.80;97.30;;;;;;5059106;28;20199;-83
2021/08/14 04:24:16;;;;;;;11.53;5.73;;;16.70;97.30;;;;;;5057092;23;20612;-78
2021/08/14 04:26:42;;;;;;;16.03;5.70;;;16.70;97.30;;;;;;5056091;28;20180;-78
2021/08/14 04:29:07;;;;;;;11.90;5.40;;;16.60;97.30;;;;;;5056130;28;20195;-78
2021/08/14 04:31:33;;;;;;;11.17;5.47;;;16.60;97.30;;;;;;5037899;28;20171;-78
2021/08/14 04:33:59;;;;;;;10.17;6.07;;;16.60;97.30;;;;;;5056476;28;20186;-78
2021/08/14 04:36:24;;;;;;;10.10;5.73;;;16.60;97.30;;;;;;5037812;28;20629;-78
2021/08/14 04:38:50;;;;;;;11.90;6.53;;;16.60;97.30;;;;;;5037591;28;20201;-78
2021/08/14 04:41:16;;;;;;;15.33;6.20;;;16.60;97.30;;;;;;5034666;28;20183;-78
2021/08/14 04:43:41;;;;;;;12.40;5.10;;;16.60;97.30;;;;;;5032819;28;20200;-78
2021/08/14 04:46:07;;;;;;;10.33;6.17;;;16.60;97.30;;;;;;5043419;28;20602;-78
2021/08/14 04:48:32;;;;;;;11.50;5.60;;;16.60;97.30;;;;;;5056056;28;20335;-78
2021/08/14 04:50:58;;;;;;;11.33;6.30;;;16.60;97.30;;;;;;5048335;28;20175;-78
2021/08/14 04:53:24;;;;;;;13.73;5.50;;;16.60;97.30;;;;;;5057881;28;20260;-78
2021/08/14 04:55:49;;;;;;;9.53;5.33;;;16.60;97.30;;;;;;5057478;28;20188;-78
2021/08/14 04:58:15;;;;;;;11.53;6.63;;;16.60;97.30;;;;;;5057333;28;20199;-78
2021/08/14 05:00:40;;;;;;;11.30;6.03;;;16.60;97.30;;;;;;5058037;28;20553;-79
2021/08/14 05:03:07;;;;;;;12.50;5.77;;;16.70;97.30;;;;;;5057893;28;20260;-79
2021/08/14 05:05:32;;;;;;;11.43;6.00;;;16.70;97.30;;;;;;5057231;28;20981;-78
2021/08/14 05:07:58;;;;;;;9.40;5.70;;;16.60;97.30;;;;;;5057528;28;20202;-78
2021/08/14 05:10:24;;;;;;;13.07;6.43;;;16.70;97.30;;;;;;5058053;28;20171;-78
2021/08/14 05:12:49;;;;;;;10.03;6.10;;;16.70;97.30;;;;;;5057059;28;20197;-78
2021/08/14 05:15:15;;;;;;;12.87;6.27;;;16.80;97.30;;;;;;5057839;28;20186;-79
2021/08/14 05:17:40;;;;;;;15.30;5.77;;;16.80;97.30;;;;;;5057618;28;20213;-78
2021/08/14 05:20:06;;;;;;;11.53;6.53;;;16.80;97.30;;;;;;5057200;28;20190;-79
2021/08/14 05:22:32;;;;;;;11.27;6.20;;;16.80;97.30;;;;;;5057282;28;20225;-79
2021/08/14 05:24:57;;;;;;;11.10;6.30;;;16.80;97.30;;;;;;5057938;28;20879;-79
2021/08/14 05:27:23;;;;;;;16.30;6.63;;;16.90;97.30;;;;;;5075551;28;20202;-79
2021/08/14 05:29:49;;;;;;;17.43;6.43;;;16.90;97.30;;;;;;5075909;28;20198;-79
2021/08/14 05:32:14;;;;;;;13.03;6.90;;;17.00;97.30;;;;;;5057783;28;20532;-79
2021/08/14 05:34:40;;;;;;;12.80;7.00;;;17.00;97.30;;;;;;5057282;28;20175;-79
2021/08/14 05:37:05;;;;;;;20.60;8.00;;;17.10;97.30;;;;;;5057377;28;20222;-79
2021/08/14 05:39:31;;;;;;;14.37;7.17;;;17.20;97.30;;;;;;5057716;28;20206;-79
2021/08/14 05:41:57;;;;;;;11.50;6.50;;;17.30;97.30;;;;;;5057350;28;20213;-79
2021/08/14 05:44:22;;;;;;;17.73;7.30;;;17.40;97.30;;;;;;5057141;28;20179;-78
2021/08/14 05:46:48;;;;;;;18.63;7.43;;;17.40;97.30;;;;;;5075618;28;20198;-78
2021/08/14 05:49:14;;;;;;;21.07;8.27;;;17.50;97.30;;;;;;5041185;28;20196;-79
2021/08/14 05:51:41;;;;;;;18.47;8.00;;;17.60;97.30;;;;;;5036819;28;20532;-79
2021/08/14 05:54:07;;;;;;;16.10;7.60;;;17.70;97.30;;;;;;5037833;28;20422;-79
2021/08/14 05:56:32;;;;;;;10.70;6.70;;;17.80;97.30;;;;;;5037694;28;20899;-78
2021/08/14 05:58:59;;;;;;;13.60;7.03;;;17.90;97.30;;;;;;5042949;28;20493;-79
2021/08/14 06:01:24;;;;;;;15.20;7.50;;;17.90;97.30;;;;;;5037148;28;20766;-78
2021/08/14 06:03:50;;;;;;;12.40;6.97;;;18.00;97.30;;;;;;5037380;28;20406;-78
2021/08/14 06:06:16;;;;;;;19.37;8.07;;;18.10;97.30;;;;;;5058298;28;20180;-78
2021/08/14 06:08:42;;;;;;;13.57;6.60;;;18.20;97.30;;;;;;5036787;28;20184;-78
2021/08/14 06:11:07;;;;;;;20.20;7.20;;;18.30;97.30;;;;;;5037275;28;20412;-78
2021/08/14 06:13:33;;;;;;;14.73;6.60;;;18.40;97.30;;;;;;5036599;28;20182;-78
2021/08/14 06:15:58;;;;;;;14.20;7.10;;;18.50;97.30;;;;;;5036747;28;20179;-78
2021/08/14 06:18:24;;;;;;;11.63;6.60;;;18.60;97.30;;;;;;5037027;28;20188;-77
2021/08/14 06:20:49;;;;;;;11.47;5.53;;;18.70;97.30;;;;;;5036036;28;20214;-82
2021/08/14 06:23:15;;;;;;;13.60;6.97;;;18.80;97.30;;;;;;5039710;28;20251;-78
2021/08/14 06:25:40;;;;;;;15.43;6.63;;;18.90;97.30;;;;;;5039532;28;20176;-78
2021/08/14 06:28:06;;;;;;;13.53;6.27;;;19.00;97.30;;;;;;5048208;28;20203;-79
2021/08/14 06:30:32;;;;;;;14.07;6.57;;;19.10;97.30;;;;;;5030595;28;20168;-78
2021/08/14 06:32:58;;;;;;;13.43;6.37;;;19.10;97.30;;;;;;5034153;28;20184;-78
2021/08/14 06:35:24;;;;;;;10.00;6.00;;;19.20;97.30;;;;;;5054652;28;20171;-79
2021/08/14 06:37:50;;;;;;;11.83;5.80;;;19.30;97.30;;;;;;5052113;28;20409;-79
2021/08/14 06:40:16;;;;;;;10.20;6.50;;;19.40;97.30;;;;;;5054231;28;20549;-79
2021/08/14 06:42:41;;;;;;;14.50;5.83;;;19.40;97.30;;;;;;5039006;28;20473;-77
2021/08/14 06:45:08;;;;;;;14.57;5.57;;;19.50;97.30;;;;;;5053963;28;20600;-77
2021/08/14 06:47:33;;;;;;;10.60;6.20;;;19.50;97.30;;;;;;5034519;28;20267;-77
2021/08/14 06:49:59;;;;;;;12.37;5.40;;;19.60;97.30;;;;;;5035280;28;20501;-77
2021/08/14 06:52:24;;;;;;;11.90;5.20;;;19.70;97.30;;;;;;5037928;28;20180;-78
2021/08/14 06:54:50;;;;;;;9.97;5.60;;;19.80;97.30;;;;;;5057836;28;20176;-78
2021/08/14 06:57:15;;;;;;;9.10;5.83;;;19.80;97.30;;;;;;5036377;28;20196;-77
2021/08/14 06:59:41;;;;;;;13.00;5.80;;;19.90;97.30;;;;;;5038253;28;20618;-78
2021/08/14 07:02:08;;;;;;;10.40;6.40;;;20.00;97.30;;;;;;5037718;28;20229;-78
2021/08/14 07:04:34;;;;;;;11.27;5.27;;;20.10;97.30;;;;;;5040474;28;20278;-79
2021/08/14 07:06:59;;;;;;;8.17;4.73;;;20.20;97.30;;;;;;5039606;28;20415;-77
2021/08/14 07:09:25;;;;;;;12.03;5.03;;;20.30;97.30;;;;;;5037604;28;20445;-78
2021/08/14 07:11:51;;;;;;;7.73;4.93;;;20.40;97.30;;;;;;5040500;28;20210;-79
2021/08/14 07:14:17;;;;;;;14.70;5.07;;;20.50;97.30;;;;;;5039921;28;20211;-79
2021/08/14 07:16:43;;;;;;;10.40;4.83;;;20.60;96.90;;;;;;5037504;28;20184;-78
2021/08/14 07:19:08;;;;;;;8.37;5.27;;;20.70;97.30;;;;;;5037682;28;20442;-78
2021/08/14 07:21:34;;;;;;;10.90;5.70;;;20.80;97.30;;;;;;5040114;28;20183;-78
2021/08/14 07:23:59;;;;;;;9.73;5.17;;;20.90;97.30;;;;;;5038825;28;20207;-78
2021/08/14 07:26:25;;;;;;;12.40;6.30;;;21.00;97.30;;;;;;5034436;28;20179;-78
2021/08/14 07:28:51;;;;;;;14.83;6.73;;;21.10;97.30;;;;;;5039198;28;20252;-78
2021/08/14 07:31:16;;;;;;;15.27;5.90;;;21.20;97.30;;;;;;5039693;28;20191;-78
2021/08/14 07:33:42;;;;;;;11.43;6.00;;;21.20;97.30;;;;;;5040422;28;20252;-78
2021/08/14 07:36:08;;;;;;;10.17;5.80;;;21.30;97.30;;;;;;5057769;28;20195;-79
2021/08/14 07:38:35;;;;;;;10.77;5.47;;;21.40;97.30;;;;;;5038213;28;20235;-78
2021/08/14 07:41:00;;;;;;;10.90;5.90;;;21.50;97.10;;;;;;5038138;28;20435;-79
2021/08/14 07:43:26;;;;;;;12.90;6.03;;;21.60;96.80;;;;;;5039146;28;20867;-78
2021/08/14 07:45:51;;;;;;;9.13;6.20;;;21.70;96.90;;;;;;5039171;28;20176;-79
2021/08/14 07:48:17;;;;;;;12.20;6.10;;;21.80;96.60;;;;;;5039475;28;20226;-79
2021/08/14 07:50:43;;;;;;;9.70;5.23;;;22.00;97.30;;;;;;5040640;28;20188;-79
2021/08/14 07:53:08;;;;;;;14.27;5.80;;;22.00;95.90;;;;;;5039792;28;20183;-79
2021/08/14 07:55:34;;;;;;;8.57;4.40;;;22.10;95.50;;;;;;5039418;28;20184;-80
2021/08/14 07:58:00;;;;;;;17.07;5.60;;;22.20;95.00;;;;;;5038885;28;20229;-78
2021/08/14 08:00:27;;;;;;;12.63;6.00;;;22.30;95.00;;;;;;5040037;28;20825;-79
2021/08/14 08:02:53;;;;;;;12.83;5.57;;;22.40;95.10;;;;;;5040114;28;20454;-79
2021/08/14 08:05:19;;;;;;;14.27;5.17;;;22.40;93.60;;;;;;5039345;28;20414;-80
2021/08/14 08:07:45;;;;;;;9.67;4.87;;;22.50;92.70;;;;;;5039838;28;20469;-80
2021/08/14 08:10:13;;;;;;;11.47;5.53;;;22.60;91.50;;;;;;5040295;28;20410;-80
2021/08/14 08:12:39;;;;;;;8.77;5.30;;;22.60;91.80;;;;;;5040681;28;20414;-80
2021/08/14 08:15:09;;;;;;;9.70;5.10;;;22.60;92.30;;;;;;5040683;28;20970;-80
2021/08/14 08:17:35;;;;;;;11.87;5.00;;;22.70;91.00;;;;;;5053736;28;20717;-79
2021/08/14 08:20:01;;;;;;;10.03;5.20;;;22.80;90.80;;;;;;5060639;28;20413;-80
2021/08/14 08:22:27;;;;;;;9.07;4.87;;;22.80;91.00;;;;;;5061305;28;20195;-80
2021/08/14 08:24:53;;;;;;;10.03;5.27;;;22.90;92.70;;;;;;5059680;28;20980;-80
2021/08/14 08:27:19;;;;;;;8.43;4.70;;;23.00;90.80;;;;;;5059886;28;20441;-80
2021/08/14 08:29:44;;;;;;;7.40;4.50;;;23.10;89.90;;;;;;5059065;28;20195;-80
2021/08/14 08:32:10;;;;;;;7.13;4.23;;;23.20;88.80;;;;;;5060055;28;20232;-79
2021/08/14 08:34:36;;;;;;;8.23;3.90;;;23.20;88.70;;;;;;5060480;28;20204;-80
2021/08/14 08:37:02;;;;;;;10.60;5.27;;;23.30;88.50;;;;;;5077909;28;20513;-81
2021/08/14 08:39:28;;;;;;;8.10;4.80;;;23.40;87.90;;;;;;5058745;28;20198;-79
2021/08/14 08:41:56;;;;;;;8.60;4.67;;;23.40;87.70;;;;;;5059865;28;20465;-79
2021/08/14 08:44:22;;;;;;;10.80;4.73;;;23.50;87.50;;;;;;5052909;28;21050;-79
2021/08/14 08:46:48;;;;;;;7.43;3.60;;;23.50;87.40;;;;;;5059819;28;20422;-79
2021/08/14 08:49:17;;;;;;;8.23;4.10;;;23.60;88.10;;;;;;5059560;28;20709;-79
2021/08/14 08:51:43;;;;;;;8.23;3.90;;;23.70;86.60;;;;;;5060597;28;20410;-79
2021/08/14 08:54:12;;;;;;;9.80;4.30;;;23.80;88.00;;;;;;5058902;28;20431;-80
2021/08/14 08:56:38;;;;;;;8.00;4.30;;;23.90;86.90;;;;;;5059237;28;20261;-79
2021/08/14 08:59:04;;;;;;;7.50;4.60;;;24.00;86.60;;;;;;5059025;28;20925;-78
2021/08/14 09:01:29;;;;;;;7.87;4.30;;;24.10;86.30;;;;;;5057994;28;20210;-79
2021/08/14 09:04:29;;;;;;;11.40;5.40;;;24.20;86.40;;;;;;5077318;28;20256;-80
2021/08/14 09:06:57;;;;;;;8.40;4.53;;;24.20;86.60;;;;;;5059047;28;20175;-81
2021/08/14 09:09:27;;;;;;;8.73;4.57;;;24.30;87.80;;;;;;5058134;28;20484;-80
2021/08/14 09:11:55;;;;;;;7.10;3.90;;;24.40;87.00;;;;;;5041703;28;20845;-79
2021/08/14 09:14:21;;;;;;;9.70;4.90;;;24.50;87.20;;;;;;5057884;28;20988;-80
2021/08/14 09:17:04;;;;;;;8.00;4.20;;;24.50;87.20;;;;;;5058545;28;20425;-80
2021/08/14 09:19:29;;;;;;;10.07;4.40;;;24.60;86.90;;;;;;5059406;28;20190;-80
2021/08/14 09:21:55;;;;;;;11.10;4.53;;;24.70;87.40;;;;;;5059304;28;20491;-80
2021/08/14 09:24:38;;;;;;;8.30;4.10;;;24.80;86.00;;;;;;5075045;28;20211;-81
2021/08/14 09:27:05;;;;;;;8.60;4.03;;;24.80;85.60;;;;;;5058305;28;20193;-79
2021/08/14 09:29:36;;;;;;;9.00;4.50;;;24.80;85.40;;;;;;5057621;28;20465;-81
2021/08/14 09:32:05;;;;;;;8.53;3.90;;;24.80;86.60;;;;;;5057719;28;20563;-81
2021/08/14 09:34:32;;;;;;;6.00;4.00;;;24.90;86.40;;;;;;5058516;28;20456;-80
2021/08/14 09:37:12;;;;;;;8.83;4.40;;;24.90;86.80;;;;;;5059773;28;20452;-80
2021/08/14 09:39:56;;;;;;;7.23;4.17;;;25.00;86.70;;;;;;5060842;28;20441;-80
2021/08/14 09:42:22;;;;;;;6.47;4.00;;;25.10;85.70;;;;;;5081520;28;20460;-79
2021/08/14 09:45:14;;;;;;;11.37;4.83;;;25.20;85.90;;;;;;5062634;28;20422;-80
2021/08/14 09:47:44;;;;;;;7.30;4.67;;;25.30;86.20;;;;;;5062823;28;20420;-80
2021/08/14 09:50:10;;;;;;;6.10;3.80;;;25.30;85.60;;;;;;5081008;28;20480;-82
2021/08/14 09:52:36;;;;;;;6.03;3.80;;;25.40;86.20;;;;;;5063479;28;20422;-80
2021/08/14 09:55:02;;;;;;;12.83;3.97;;;25.50;87.20;;;;;;5080848;28;20511;-82
2021/08/14 09:57:27;;;;;;;6.80;4.60;;;25.60;86.20;;;;;;5057658;28;20203;-81
2021/08/14 09:59:53;;;;;;;6.97;3.70;;;25.60;84.70;;;;;;5065039;28;20195;-82
2021/08/14 10:02:26;;;;;;;7.00;3.83;;;25.60;84.20;;;;;;5046393;28;20202;-81
2021/08/14 10:04:55;;;;;;;7.53;3.70;;;25.60;84.60;;;;;;5042078;28;20164;-82
2021/08/14 10:07:21;;;;;;;10.00;3.97;;;25.60;84.90;;;;;;5042755;28;20503;-83
2021/08/14 10:09:48;;;;;;;6.80;4.30;;;25.60;85.00;;;;;;5041534;28;20441;-81
2021/08/14 10:12:15;;;;;;;7.50;3.87;;;25.60;84.60;;;;;;5045532;28;20437;-80
2021/08/14 10:14:43;;;;;;;6.00;4.27;;;25.70;83.60;;;;;;5043320;28;20820;-81
2021/08/14 10:17:09;;;;;;;6.03;3.93;;;25.70;84.80;;;;;;5061910;28;20405;-80
2021/08/14 10:19:36;;;;;;;7.03;4.60;;;25.80;84.60;;;;;;5079360;28;21040;-80
2021/08/14 10:22:04;;;;;;;9.17;4.20;;;26.00;84.10;;;;;;5060969;28;20525;-81
2021/08/14 10:24:39;;;;;;;7.70;4.90;;;26.10;84.50;;;;;;5060704;28;20480;-81
2021/08/14 10:27:11;;;;;;;6.30;4.37;;;26.20;83.00;;;;;;5058290;22;20841;-75
2021/08/14 10:29:55;;;;;;;5.20;3.40;;;26.20;82.60;;;;;;5033806;28;20442;-74
2021/08/14 10:32:29;;;;;;;9.53;3.87;;;26.20;82.60;;;;;;5033790;28;20439;-77
2021/08/14 10:35:17;;;;;;;6.50;3.00;;;26.20;80.70;;;;;;5032379;28;20430;-75
2021/08/14 10:37:47;;;;;;;8.43;3.60;;;26.30;80.30;;;;;;5032046;28;20815;-74
2021/08/14 10:40:15;;;;;;;5.10;3.43;;;26.40;80.20;;;;;;5034195;28;20506;-75
2021/08/14 10:43:01;;;;;;;5.63;4.10;;;26.40;80.60;;;;;;5033722;28;21186;-74
2021/08/14 10:45:34;;;;;;;8.03;3.90;;;26.50;81.40;;;;;;5031904;28;20790;-75
2021/08/14 10:48:04;;;;;;;7.53;4.00;;;26.50;82.10;;;;;;5033296;28;20443;-75
2021/08/14 10:50:30;;;;;;;5.97;3.90;;;26.60;81.80;;;;;;5031464;28;20423;-75
2021/08/14 10:53:25;;;;;;;6.43;3.93;;;26.70;82.20;;;;;;5032309;28;20465;-75
2021/08/14 10:55:53;;;;;;;7.60;3.70;;;26.80;80.80;;;;;;5029072;28;20192;-75
2021/08/14 10:58:19;;;;;;;5.30;3.33;;;26.90;79.30;;;;;;5033311;28;20852;-76
2021/08/14 11:00:45;;;;;;;8.20;3.33;;;26.80;80.00;;;;;;5033614;28;20415;-77
2021/08/14 11:03:13;;;;;;;4.37;2.80;;;27.00;79.30;;;;;;5033341;28;20227;-76
2021/08/14 11:05:41;;;;;;;6.37;3.40;;;27.10;78.30;;;;;;5033119;28;20403;-75
2021/08/14 11:08:39;;;;;;;7.30;3.47;;;27.10;78.20;;;;;;5031474;28;20516;-75
2021/08/14 11:11:34;;;;;;;5.83;3.33;;;27.10;78.20;;;;;;5009961;28;20761;-76
2021/08/14 11:14:11;;;;;;;7.27;3.97;;;27.20;78.20;;;;;;5031924;28;20502;-76
2021/08/14 11:17:00;;;;;;;6.10;2.90;;;27.10;78.00;;;;;;5039280;28;20844;-76
2021/08/14 11:19:52;;;;;;;5.17;3.00;;;27.30;76.70;;;;;;5031666;28;20427;-75
2021/08/14 11:22:30;;;;;;;5.80;3.60;;;27.40;76.80;;;;;;5031401;28;20455;-76
2021/08/14 11:24:59;;;;;;;5.13;3.63;;;27.50;77.20;;;;;;5031411;28;20415;-76
2021/08/14 11:27:33;;;;;;;4.30;3.50;;;27.50;78.00;;;;;;5032660;28;20521;-76
2021/08/14 11:29:59;;;;;;;6.77;3.50;;;27.60;77.10;;;;;;5032869;28;20403;-76
2021/08/14 11:32:25;;;;;;;5.30;3.77;;;27.70;76.70;;;;;;5033205;28;20415;-75
2021/08/14 11:34:53;;;;;;;10.47;3.70;;;27.70;77.30;;;;;;5031220;28;20183;-76
2021/08/14 11:37:19;;;;;;;7.30;3.17;;;27.60;76.80;;;;;;5032699;28;20415;-75
2021/08/14 11:39:45;;;;;;;5.70;3.90;;;27.60;76.30;;;;;;5032708;28;20450;-76
2021/08/14 11:42:11;;;;;;;6.03;3.70;;;27.60;76.40;;;;;;5031123;28;20465;-76
2021/08/14 11:44:38;;;;;;;4.40;3.00;;;27.60;76.60;;;;;;5031487;28;20411;-74
2021/08/14 11:47:06;;;;;;;5.47;3.33;;;27.70;75.20;;;;;;5031287;28;20419;-76
2021/08/14 11:50:10;;;;;;;6.77;3.50;;;27.80;75.10;;;;;;5030969;28;20431;-76
2021/08/14 11:52:37;;;;;;;5.40;3.10;;;28.00;74.30;;;;;;4970993;28;20437;-74
2021/08/14 11:55:10;;;;;;;7.70;3.70;;;28.00;73.10;;;;;;4970751;28;20422;-74
2021/08/14 11:57:41;;;;;;;7.63;3.87;;;28.10;73.90;;;;;;5002872;28;20423;-74
2021/08/14 12:00:32;;;;;;;5.13;3.50;;;28.20;75.20;;;;;;5030109;28;20435;-74
2021/08/14 12:03:14;;;;;;;5.30;3.27;;;28.30;72.30;;;;;;5019955;28;20542;-75
2021/08/14 12:05:46;;;;;;;5.40;3.23;;;28.30;72.80;;;;;;5022795;28;20477;-76
2021/08/14 12:08:31;;;;;;;5.30;3.50;;;28.20;72.50;;;;;;5021727;28;20818;-75
2021/08/14 12:10:59;;;;;;;4.97;3.03;;;28.40;73.30;;;;;;5020586;28;20459;-77
2021/08/14 12:13:24;;;;;;;6.20;3.00;;;28.40;72.00;;;;;;5021014;28;20510;-72
2021/08/14 12:15:50;;;;;;;5.83;3.30;;;28.50;73.40;;;;;;5025969;28;20984;-73
2021/08/14 12:18:33;;;;;;;4.37;2.80;;;28.40;72.70;;;;;;5025294;28;20196;-72
2021/08/14 12:21:00;;;;;;;3.73;2.63;;;28.60;73.80;;;;;;5025718;28;20204;-72
2021/08/14 12:23:28;;;;;;;4.93;3.33;;;28.70;71.70;;;;;;5024188;28;20474;-72
2021/08/14 12:25:57;;;;;;;4.83;3.23;;;28.70;72.40;;;;;;5026263;28;20470;-72
2021/08/14 12:28:42;;;;;;;4.83;3.17;;;28.80;72.20;;;;;;5025093;28;20509;-74
2021/08/14 12:31:15;;;;;;;5.47;3.10;;;28.80;70.10;;;;;;5024431;28;20483;-74
2021/08/14 12:33:48;;;;;;;6.47;3.27;;;28.80;71.90;;;;;;5024254;28;20594;-73
2021/08/14 12:36:14;;;;;;;5.70;3.17;;;28.70;71.70;;;;;;5022538;28;20826;-72
2021/08/14 12:38:48;;;;;;;5.90;3.07;;;28.80;73.30;;;;;;5024840;28;20442;-71
2021/08/14 12:41:18;;;;;;;7.13;3.20;;;28.90;73.70;;;;;;5030378;28;20206;-72
2021/08/14 12:43:49;;;;;;;4.67;3.50;;;29.00;72.60;;;;;;5030329;28;20503;-70
2021/08/14 12:46:22;;;;;;;7.37;4.03;;;29.20;73.90;;;;;;5030462;28;20411;-71